sensor_id;sensor_type;location;lat;lon;timestamp;P1;durP1;ratioP1;P2;durP2;ratioP2
20245;SDS011;10281;54.406;18.556;2022-10-16T00:00:35;62.73;;;28.73;;
20245;SDS011;10281;54.406;18.556;2022-10-16T00:03:04;49.77;;;29.17;;
20245;SDS011;10281;54.406;18.556;2022-10-16T00:05:31;50.40;;;28.17;;
20245;SDS011;10281;54.406;18.556;2022-10-16T00:07:58;48.53;;;28.90;;
20245;SDS011;10281;54.406;18.556;2022-10-16T00:10:25;52.30;;;29.10;;
20245;SDS011;10281;54.406;18.556;2022-10-16T00:12:51;49.33;;;28.77;;
20245;SDS011;10281;54.406;18.556;2022-10-16T00:15:18;50.93;;;27.70;;
20245;SDS011;10281;54.406;18.556;2022-10-16T00:17:44;53.17;;;30.20;;
20245;SDS011;10281;54.406;18.556;2022-10-16T00:20:11;51.70;;;27.23;;
20245;SDS011;10281;54.406;18.556;2022-10-16T00:22:37;53.73;;;28.13;;
20245;SDS011;10281;54.406;18.556;2022-10-16T00:25:05;46.77;;;26.70;;
20245;SDS011;10281;54.406;18.556;2022-10-16T00:27:32;47.47;;;27.07;;
20245;SDS011;10281;54.406;18.556;2022-10-16T00:30:00;45.90;;;26.80;;
20245;SDS011;10281;54.406;18.556;2022-10-16T00:32:26;44.63;;;27.33;;
20245;SDS011;10281;54.406;18.556;2022-10-16T00:34:53;42.53;;;26.10;;
20245;SDS011;10281;54.406;18.556;2022-10-16T00:37:20;48.10;;;26.43;;
20245;SDS011;10281;54.406;18.556;2022-10-16T00:39:47;41.33;;;24.87;;
20245;SDS011;10281;54.406;18.556;2022-10-16T00:42:16;41.13;;;25.07;;
20245;SDS011;10281;54.406;18.556;2022-10-16T00:44:48;39.43;;;25.87;;
20245;SDS011;10281;54.406;18.556;2022-10-16T00:47:21;46.00;;;26.33;;
20245;SDS011;10281;54.406;18.556;2022-10-16T00:49:51;41.53;;;24.13;;
20245;SDS011;10281;54.406;18.556;2022-10-16T00:52:22;39.80;;;24.50;;
20245;SDS011;10281;54.406;18.556;2022-10-16T00:54:49;49.93;;;24.60;;
20245;SDS011;10281;54.406;18.556;2022-10-16T00:57:18;43.77;;;25.23;;
20245;SDS011;10281;54.406;18.556;2022-10-16T00:59:44;40.53;;;25.13;;
20245;SDS011;10281;54.406;18.556;2022-10-16T01:02:13;42.33;;;25.97;;
20245;SDS011;10281;54.406;18.556;2022-10-16T01:04:46;38.80;;;23.87;;
20245;SDS011;10281;54.406;18.556;2022-10-16T01:07:22;40.03;;;24.20;;
20245;SDS011;10281;54.406;18.556;2022-10-16T01:10:13;41.20;;;24.03;;
20245;SDS011;10281;54.406;18.556;2022-10-16T01:13:11;39.77;;;24.13;;
20245;SDS011;10281;54.406;18.556;2022-10-16T01:15:42;32.10;;;22.53;;
20245;SDS011;10281;54.406;18.556;2022-10-16T01:18:29;33.57;;;22.00;;
20245;SDS011;10281;54.406;18.556;2022-10-16T01:21:04;35.80;;;21.80;;
20245;SDS011;10281;54.406;18.556;2022-10-16T01:24:08;41.80;;;26.90;;
20245;SDS011;10281;54.406;18.556;2022-10-16T01:26:31;34.60;;;21.83;;
20245;SDS011;10281;54.406;18.556;2022-10-16T01:29:02;34.77;;;21.27;;
20245;SDS011;10281;54.406;18.556;2022-10-16T01:31:31;31.63;;;20.40;;
20245;SDS011;10281;54.406;18.556;2022-10-16T01:34:04;34.03;;;21.27;;
20245;SDS011;10281;54.406;18.556;2022-10-16T01:36:37;32.70;;;20.57;;
20245;SDS011;10281;54.406;18.556;2022-10-16T01:39:08;30.37;;;20.20;;
20245;SDS011;10281;54.406;18.556;2022-10-16T01:41:38;28.73;;;19.53;;
20245;SDS011;10281;54.406;18.556;2022-10-16T01:44:10;27.83;;;19.00;;
20245;SDS011;10281;54.406;18.556;2022-10-16T01:46:41;28.17;;;19.67;;
20245;SDS011;10281;54.406;18.556;2022-10-16T01:49:09;30.57;;;19.57;;
20245;SDS011;10281;54.406;18.556;2022-10-16T01:51:37;29.80;;;19.93;;
20245;SDS011;10281;54.406;18.556;2022-10-16T01:54:05;28.27;;;19.67;;
20245;SDS011;10281;54.406;18.556;2022-10-16T01:56:34;23.87;;;17.63;;
20245;SDS011;10281;54.406;18.556;2022-10-16T01:59:03;27.33;;;18.30;;
20245;SDS011;10281;54.406;18.556;2022-10-16T02:01:33;27.90;;;18.10;;
20245;SDS011;10281;54.406;18.556;2022-10-16T02:04:04;23.07;;;17.80;;
20245;SDS011;10281;54.406;18.556;2022-10-16T02:06:39;23.43;;;16.53;;
20245;SDS011;10281;54.406;18.556;2022-10-16T02:09:06;21.33;;;16.10;;
20245;SDS011;10281;54.406;18.556;2022-10-16T02:11:33;23.23;;;16.50;;
20245;SDS011;10281;54.406;18.556;2022-10-16T02:14:01;22.87;;;16.67;;
20245;SDS011;10281;54.406;18.556;2022-10-16T02:16:33;24.50;;;16.60;;
20245;SDS011;10281;54.406;18.556;2022-10-16T02:19:05;21.83;;;16.40;;
20245;SDS011;10281;54.406;18.556;2022-10-16T02:21:39;20.30;;;15.83;;
20245;SDS011;10281;54.406;18.556;2022-10-16T02:24:17;21.90;;;16.27;;
20245;SDS011;10281;54.406;18.556;2022-10-16T02:26:49;21.07;;;16.37;;
20245;SDS011;10281;54.406;18.556;2022-10-16T02:29:22;21.53;;;16.30;;
20245;SDS011;10281;54.406;18.556;2022-10-16T02:31:53;20.03;;;15.43;;
20245;SDS011;10281;54.406;18.556;2022-10-16T02:34:22;19.67;;;15.37;;
20245;SDS011;10281;54.406;18.556;2022-10-16T02:36:51;20.87;;;15.00;;
20245;SDS011;10281;54.406;18.556;2022-10-16T02:39:19;21.73;;;15.10;;
20245;SDS011;10281;54.406;18.556;2022-10-16T02:41:47;22.93;;;16.00;;
20245;SDS011;10281;54.406;18.556;2022-10-16T02:44:14;21.20;;;15.03;;
20245;SDS011;10281;54.406;18.556;2022-10-16T02:46:40;20.13;;;15.47;;
20245;SDS011;10281;54.406;18.556;2022-10-16T02:49:07;22.27;;;15.10;;
20245;SDS011;10281;54.406;18.556;2022-10-16T02:51:33;21.43;;;15.40;;
20245;SDS011;10281;54.406;18.556;2022-10-16T02:54:01;21.17;;;15.17;;
20245;SDS011;10281;54.406;18.556;2022-10-16T02:56:28;20.87;;;15.07;;
20245;SDS011;10281;54.406;18.556;2022-10-16T02:58:55;20.00;;;14.93;;
20245;SDS011;10281;54.406;18.556;2022-10-16T03:01:22;18.60;;;14.43;;
20245;SDS011;10281;54.406;18.556;2022-10-16T03:03:49;20.27;;;14.40;;
20245;SDS011;10281;54.406;18.556;2022-10-16T03:06:16;19.60;;;15.33;;
20245;SDS011;10281;54.406;18.556;2022-10-16T03:08:42;19.90;;;15.00;;
20245;SDS011;10281;54.406;18.556;2022-10-16T03:11:09;22.23;;;15.60;;
20245;SDS011;10281;54.406;18.556;2022-10-16T03:13:35;20.73;;;14.97;;
20245;SDS011;10281;54.406;18.556;2022-10-16T03:16:02;23.27;;;15.00;;
20245;SDS011;10281;54.406;18.556;2022-10-16T03:18:29;19.33;;;15.13;;
20245;SDS011;10281;54.406;18.556;2022-10-16T03:20:55;19.73;;;14.87;;
20245;SDS011;10281;54.406;18.556;2022-10-16T03:23:22;23.97;;;15.57;;
20245;SDS011;10281;54.406;18.556;2022-10-16T03:25:49;20.33;;;14.73;;
20245;SDS011;10281;54.406;18.556;2022-10-16T03:28:15;21.43;;;14.63;;
20245;SDS011;10281;54.406;18.556;2022-10-16T03:30:42;20.83;;;15.00;;
20245;SDS011;10281;54.406;18.556;2022-10-16T03:33:09;21.43;;;15.00;;
20245;SDS011;10281;54.406;18.556;2022-10-16T03:35:36;20.80;;;15.33;;
20245;SDS011;10281;54.406;18.556;2022-10-16T03:38:03;20.20;;;14.47;;
20245;SDS011;10281;54.406;18.556;2022-10-16T03:40:29;18.87;;;14.90;;
20245;SDS011;10281;54.406;18.556;2022-10-16T03:42:57;21.07;;;15.53;;
20245;SDS011;10281;54.406;18.556;2022-10-16T03:45:24;20.43;;;14.93;;
20245;SDS011;10281;54.406;18.556;2022-10-16T03:47:52;22.27;;;15.87;;
20245;SDS011;10281;54.406;18.556;2022-10-16T03:50:19;19.77;;;15.70;;
20245;SDS011;10281;54.406;18.556;2022-10-16T03:52:46;22.20;;;15.70;;
20245;SDS011;10281;54.406;18.556;2022-10-16T03:55:13;20.53;;;15.03;;
20245;SDS011;10281;54.406;18.556;2022-10-16T03:57:39;25.60;;;16.43;;
20245;SDS011;10281;54.406;18.556;2022-10-16T04:00:06;17.80;;;14.60;;
20245;SDS011;10281;54.406;18.556;2022-10-16T04:02:33;20.63;;;15.97;;
20245;SDS011;10281;54.406;18.556;2022-10-16T04:04:59;18.70;;;14.93;;
20245;SDS011;10281;54.406;18.556;2022-10-16T04:07:26;21.93;;;15.97;;
20245;SDS011;10281;54.406;18.556;2022-10-16T04:09:53;20.77;;;15.47;;
20245;SDS011;10281;54.406;18.556;2022-10-16T04:12:19;20.40;;;16.33;;
20245;SDS011;10281;54.406;18.556;2022-10-16T04:14:46;22.30;;;16.40;;
20245;SDS011;10281;54.406;18.556;2022-10-16T04:17:13;21.97;;;16.63;;
20245;SDS011;10281;54.406;18.556;2022-10-16T04:19:39;23.50;;;16.63;;
20245;SDS011;10281;54.406;18.556;2022-10-16T04:22:06;21.13;;;15.27;;
20245;SDS011;10281;54.406;18.556;2022-10-16T04:24:32;19.87;;;15.70;;
20245;SDS011;10281;54.406;18.556;2022-10-16T04:26:59;20.00;;;15.90;;
20245;SDS011;10281;54.406;18.556;2022-10-16T04:29:26;23.03;;;16.93;;
20245;SDS011;10281;54.406;18.556;2022-10-16T04:31:52;21.33;;;15.70;;
20245;SDS011;10281;54.406;18.556;2022-10-16T04:34:19;24.63;;;16.13;;
20245;SDS011;10281;54.406;18.556;2022-10-16T04:36:47;20.07;;;15.37;;
20245;SDS011;10281;54.406;18.556;2022-10-16T04:39:15;21.00;;;16.33;;
20245;SDS011;10281;54.406;18.556;2022-10-16T04:41:42;20.77;;;15.27;;
20245;SDS011;10281;54.406;18.556;2022-10-16T04:44:09;20.13;;;16.20;;
20245;SDS011;10281;54.406;18.556;2022-10-16T04:46:35;22.43;;;16.63;;
20245;SDS011;10281;54.406;18.556;2022-10-16T04:49:02;20.07;;;15.97;;
20245;SDS011;10281;54.406;18.556;2022-10-16T04:51:29;21.93;;;16.37;;
20245;SDS011;10281;54.406;18.556;2022-10-16T04:53:55;21.97;;;16.93;;
20245;SDS011;10281;54.406;18.556;2022-10-16T04:56:22;21.97;;;17.80;;
20245;SDS011;10281;54.406;18.556;2022-10-16T04:58:49;22.00;;;16.97;;
20245;SDS011;10281;54.406;18.556;2022-10-16T05:01:16;21.60;;;16.63;;
20245;SDS011;10281;54.406;18.556;2022-10-16T05:03:43;23.83;;;18.37;;
20245;SDS011;10281;54.406;18.556;2022-10-16T05:06:09;24.63;;;17.03;;
20245;SDS011;10281;54.406;18.556;2022-10-16T05:08:36;20.43;;;16.20;;
20245;SDS011;10281;54.406;18.556;2022-10-16T05:11:02;23.43;;;17.50;;
20245;SDS011;10281;54.406;18.556;2022-10-16T05:13:29;22.03;;;15.87;;
20245;SDS011;10281;54.406;18.556;2022-10-16T05:15:56;26.07;;;19.17;;
20245;SDS011;10281;54.406;18.556;2022-10-16T05:18:22;28.40;;;18.23;;
20245;SDS011;10281;54.406;18.556;2022-10-16T05:20:49;25.53;;;17.13;;
20245;SDS011;10281;54.406;18.556;2022-10-16T05:23:15;25.53;;;18.20;;
20245;SDS011;10281;54.406;18.556;2022-10-16T05:25:42;23.80;;;18.37;;
20245;SDS011;10281;54.406;18.556;2022-10-16T05:28:09;24.80;;;18.50;;
20245;SDS011;10281;54.406;18.556;2022-10-16T05:30:36;26.57;;;21.23;;
20245;SDS011;10281;54.406;18.556;2022-10-16T05:33:04;26.93;;;20.13;;
20245;SDS011;10281;54.406;18.556;2022-10-16T05:35:30;26.90;;;20.20;;
20245;SDS011;10281;54.406;18.556;2022-10-16T05:37:57;25.27;;;19.30;;
20245;SDS011;10281;54.406;18.556;2022-10-16T05:40:24;25.50;;;18.30;;
20245;SDS011;10281;54.406;18.556;2022-10-16T05:42:54;28.20;;;19.97;;
20245;SDS011;10281;54.406;18.556;2022-10-16T05:45:22;26.87;;;19.37;;
20245;SDS011;10281;54.406;18.556;2022-10-16T05:47:48;23.57;;;19.43;;
20245;SDS011;10281;54.406;18.556;2022-10-16T05:50:15;23.33;;;18.90;;
20245;SDS011;10281;54.406;18.556;2022-10-16T05:52:42;28.60;;;21.17;;
20245;SDS011;10281;54.406;18.556;2022-10-16T05:55:08;27.43;;;20.80;;
20245;SDS011;10281;54.406;18.556;2022-10-16T05:57:35;26.40;;;20.53;;
20245;SDS011;10281;54.406;18.556;2022-10-16T06:00:02;26.60;;;20.37;;
20245;SDS011;10281;54.406;18.556;2022-10-16T06:02:30;27.07;;;20.97;;
20245;SDS011;10281;54.406;18.556;2022-10-16T06:04:56;26.53;;;21.03;;
20245;SDS011;10281;54.406;18.556;2022-10-16T06:07:23;27.73;;;21.40;;
20245;SDS011;10281;54.406;18.556;2022-10-16T06:09:50;25.33;;;20.90;;
20245;SDS011;10281;54.406;18.556;2022-10-16T06:12:18;26.60;;;22.23;;
20245;SDS011;10281;54.406;18.556;2022-10-16T06:14:45;29.67;;;23.60;;
20245;SDS011;10281;54.406;18.556;2022-10-16T06:17:13;32.63;;;24.27;;
20245;SDS011;10281;54.406;18.556;2022-10-16T06:19:40;32.00;;;25.03;;
20245;SDS011;10281;54.406;18.556;2022-10-16T06:22:07;30.93;;;23.30;;
20245;SDS011;10281;54.406;18.556;2022-10-16T06:24:33;36.50;;;27.77;;
20245;SDS011;10281;54.406;18.556;2022-10-16T06:27:00;37.93;;;27.47;;
20245;SDS011;10281;54.406;18.556;2022-10-16T06:29:26;35.77;;;26.30;;
20245;SDS011;10281;54.406;18.556;2022-10-16T06:31:53;40.43;;;27.17;;
20245;SDS011;10281;54.406;18.556;2022-10-16T06:34:20;41.00;;;26.77;;
20245;SDS011;10281;54.406;18.556;2022-10-16T06:36:46;42.00;;;27.03;;
20245;SDS011;10281;54.406;18.556;2022-10-16T06:39:13;34.83;;;26.53;;
20245;SDS011;10281;54.406;18.556;2022-10-16T06:41:40;34.63;;;27.17;;
20245;SDS011;10281;54.406;18.556;2022-10-16T06:44:06;44.57;;;28.70;;
20245;SDS011;10281;54.406;18.556;2022-10-16T06:46:33;35.43;;;26.23;;
20245;SDS011;10281;54.406;18.556;2022-10-16T06:49:00;41.50;;;27.07;;
20245;SDS011;10281;54.406;18.556;2022-10-16T06:51:27;41.90;;;27.57;;
20245;SDS011;10281;54.406;18.556;2022-10-16T06:53:54;44.17;;;27.70;;
20245;SDS011;10281;54.406;18.556;2022-10-16T06:56:23;40.77;;;27.63;;
20245;SDS011;10281;54.406;18.556;2022-10-16T06:58:51;42.50;;;27.03;;
20245;SDS011;10281;54.406;18.556;2022-10-16T07:01:20;45.47;;;26.90;;
20245;SDS011;10281;54.406;18.556;2022-10-16T07:03:48;39.73;;;26.80;;
20245;SDS011;10281;54.406;18.556;2022-10-16T07:06:16;43.57;;;31.20;;
20245;SDS011;10281;54.406;18.556;2022-10-16T07:08:45;49.57;;;34.33;;
20245;SDS011;10281;54.406;18.556;2022-10-16T07:11:15;34.73;;;27.57;;
20245;SDS011;10281;54.406;18.556;2022-10-16T07:13:44;39.60;;;28.57;;
20245;SDS011;10281;54.406;18.556;2022-10-16T07:16:14;39.27;;;28.17;;
20245;SDS011;10281;54.406;18.556;2022-10-16T07:18:42;29.20;;;21.87;;
20245;SDS011;10281;54.406;18.556;2022-10-16T07:21:12;36.07;;;23.77;;
20245;SDS011;10281;54.406;18.556;2022-10-16T07:23:42;29.43;;;21.60;;
20245;SDS011;10281;54.406;18.556;2022-10-16T07:26:09;33.50;;;21.33;;
20245;SDS011;10281;54.406;18.556;2022-10-16T07:28:36;28.33;;;20.37;;
20245;SDS011;10281;54.406;18.556;2022-10-16T07:31:05;33.53;;;21.57;;
20245;SDS011;10281;54.406;18.556;2022-10-16T07:33:34;28.73;;;20.77;;
20245;SDS011;10281;54.406;18.556;2022-10-16T07:36:01;29.57;;;21.40;;
20245;SDS011;10281;54.406;18.556;2022-10-16T07:38:27;34.80;;;23.73;;
20245;SDS011;10281;54.406;18.556;2022-10-16T07:40:56;31.93;;;21.70;;
20245;SDS011;10281;54.406;18.556;2022-10-16T07:43:26;29.43;;;21.53;;
20245;SDS011;10281;54.406;18.556;2022-10-16T07:45:53;31.17;;;22.27;;
20245;SDS011;10281;54.406;18.556;2022-10-16T07:48:21;30.80;;;22.67;;
20245;SDS011;10281;54.406;18.556;2022-10-16T07:50:48;34.47;;;22.60;;
20245;SDS011;10281;54.406;18.556;2022-10-16T07:53:15;33.30;;;23.67;;
20245;SDS011;10281;54.406;18.556;2022-10-16T07:55:42;33.73;;;23.73;;
20245;SDS011;10281;54.406;18.556;2022-10-16T07:58:09;30.00;;;23.07;;
20245;SDS011;10281;54.406;18.556;2022-10-16T08:00:36;32.33;;;24.07;;
20245;SDS011;10281;54.406;18.556;2022-10-16T08:03:03;38.10;;;24.30;;
20245;SDS011;10281;54.406;18.556;2022-10-16T08:05:30;33.00;;;24.47;;
20245;SDS011;10281;54.406;18.556;2022-10-16T08:07:59;34.17;;;25.83;;
20245;SDS011;10281;54.406;18.556;2022-10-16T08:10:26;31.17;;;24.33;;
20245;SDS011;10281;54.406;18.556;2022-10-16T08:12:53;33.37;;;25.07;;
20245;SDS011;10281;54.406;18.556;2022-10-16T08:15:20;37.27;;;25.07;;
20245;SDS011;10281;54.406;18.556;2022-10-16T08:18:05;32.67;;;25.43;;
20245;SDS011;10281;54.406;18.556;2022-10-16T08:20:32;34.50;;;25.57;;
20245;SDS011;10281;54.406;18.556;2022-10-16T08:22:59;37.73;;;25.93;;
20245;SDS011;10281;54.406;18.556;2022-10-16T08:25:27;35.30;;;26.20;;
20245;SDS011;10281;54.406;18.556;2022-10-16T08:27:54;37.80;;;25.53;;
20245;SDS011;10281;54.406;18.556;2022-10-16T08:30:22;37.17;;;25.80;;
20245;SDS011;10281;54.406;18.556;2022-10-16T08:32:49;34.70;;;25.13;;
20245;SDS011;10281;54.406;18.556;2022-10-16T08:35:16;37.57;;;26.33;;
20245;SDS011;10281;54.406;18.556;2022-10-16T08:37:43;35.90;;;24.93;;
20245;SDS011;10281;54.406;18.556;2022-10-16T08:40:15;38.00;;;25.60;;
20245;SDS011;10281;54.406;18.556;2022-10-16T08:42:46;35.00;;;25.13;;
20245;SDS011;10281;54.406;18.556;2022-10-16T08:45:25;32.60;;;24.80;;
20245;SDS011;10281;54.406;18.556;2022-10-16T08:48:00;35.80;;;24.97;;
20245;SDS011;10281;54.406;18.556;2022-10-16T08:50:27;38.73;;;25.43;;
20245;SDS011;10281;54.406;18.556;2022-10-16T08:52:56;32.00;;;23.73;;
20245;SDS011;10281;54.406;18.556;2022-10-16T08:55:28;33.20;;;24.43;;
20245;SDS011;10281;54.406;18.556;2022-10-16T08:58:13;29.53;;;22.70;;
20245;SDS011;10281;54.406;18.556;2022-10-16T09:00:43;33.00;;;24.93;;
20245;SDS011;10281;54.406;18.556;2022-10-16T09:03:17;38.37;;;27.00;;
20245;SDS011;10281;54.406;18.556;2022-10-16T09:06:17;31.40;;;22.80;;
20245;SDS011;10281;54.406;18.556;2022-10-16T09:08:37;39.27;;;22.43;;
20245;SDS011;10281;54.406;18.556;2022-10-16T09:11:12;31.30;;;24.30;;
20245;SDS011;10281;54.406;18.556;2022-10-16T09:13:48;29.00;;;21.77;;
20245;SDS011;10281;54.406;18.556;2022-10-16T09:16:23;29.07;;;21.73;;
20245;SDS011;10281;54.406;18.556;2022-10-16T09:18:54;24.13;;;20.70;;
20245;SDS011;10281;54.406;18.556;2022-10-16T09:21:25;29.27;;;21.83;;
20245;SDS011;10281;54.406;18.556;2022-10-16T09:23:56;26.93;;;20.83;;
20245;SDS011;10281;54.406;18.556;2022-10-16T09:26:27;24.47;;;20.90;;
20245;SDS011;10281;54.406;18.556;2022-10-16T09:28:54;26.40;;;21.23;;
20245;SDS011;10281;54.406;18.556;2022-10-16T09:31:22;29.83;;;21.03;;
20245;SDS011;10281;54.406;18.556;2022-10-16T09:33:51;26.33;;;20.57;;
20245;SDS011;10281;54.406;18.556;2022-10-16T09:36:19;26.30;;;20.67;;
20245;SDS011;10281;54.406;18.556;2022-10-16T09:38:47;27.77;;;21.17;;
20245;SDS011;10281;54.406;18.556;2022-10-16T09:41:16;24.00;;;19.00;;
20245;SDS011;10281;54.406;18.556;2022-10-16T09:43:47;25.30;;;19.23;;
20245;SDS011;10281;54.406;18.556;2022-10-16T09:46:35;23.00;;;19.53;;
20245;SDS011;10281;54.406;18.556;2022-10-16T09:49:05;24.33;;;19.27;;
20245;SDS011;10281;54.406;18.556;2022-10-16T09:51:35;24.43;;;19.70;;
20245;SDS011;10281;54.406;18.556;2022-10-16T09:54:14;26.00;;;19.73;;
20245;SDS011;10281;54.406;18.556;2022-10-16T09:56:44;25.43;;;19.63;;
20245;SDS011;10281;54.406;18.556;2022-10-16T09:59:17;23.27;;;18.20;;
20245;SDS011;10281;54.406;18.556;2022-10-16T10:01:46;24.53;;;18.93;;
20245;SDS011;10281;54.406;18.556;2022-10-16T10:04:18;26.40;;;19.73;;
20245;SDS011;10281;54.406;18.556;2022-10-16T10:06:47;23.83;;;19.60;;
20245;SDS011;10281;54.406;18.556;2022-10-16T10:09:21;24.27;;;19.07;;
20245;SDS011;10281;54.406;18.556;2022-10-16T10:11:52;23.40;;;19.43;;
20245;SDS011;10281;54.406;18.556;2022-10-16T10:14:22;22.00;;;18.67;;
20245;SDS011;10281;54.406;18.556;2022-10-16T10:16:52;23.17;;;20.13;;
20245;SDS011;10281;54.406;18.556;2022-10-16T10:19:22;25.53;;;19.73;;
20245;SDS011;10281;54.406;18.556;2022-10-16T10:21:50;24.20;;;19.47;;
20245;SDS011;10281;54.406;18.556;2022-10-16T10:24:18;27.83;;;20.43;;
20245;SDS011;10281;54.406;18.556;2022-10-16T10:26:51;26.13;;;20.20;;
20245;SDS011;10281;54.406;18.556;2022-10-16T10:29:26;24.13;;;20.33;;
20245;SDS011;10281;54.406;18.556;2022-10-16T10:32:06;26.03;;;20.50;;
20245;SDS011;10281;54.406;18.556;2022-10-16T10:34:45;27.50;;;21.13;;
20245;SDS011;10281;54.406;18.556;2022-10-16T10:37:24;24.90;;;20.27;;
20245;SDS011;10281;54.406;18.556;2022-10-16T10:40:13;23.17;;;19.57;;
20245;SDS011;10281;54.406;18.556;2022-10-16T10:43:05;25.13;;;20.83;;
20245;SDS011;10281;54.406;18.556;2022-10-16T10:45:40;27.80;;;20.47;;
20245;SDS011;10281;54.406;18.556;2022-10-16T10:51:01;25.50;;;19.67;;
20245;SDS011;10281;54.406;18.556;2022-10-16T10:53:40;25.23;;;20.50;;
20245;SDS011;10281;54.406;18.556;2022-10-16T10:56:14;28.53;;;21.37;;
20245;SDS011;10281;54.406;18.556;2022-10-16T11:01:26;26.60;;;21.03;;
20245;SDS011;10281;54.406;18.556;2022-10-16T11:04:01;24.43;;;20.43;;
20245;SDS011;10281;54.406;18.556;2022-10-16T11:06:36;24.47;;;19.63;;
20245;SDS011;10281;54.406;18.556;2022-10-16T11:09:13;23.47;;;19.90;;
20245;SDS011;10281;54.406;18.556;2022-10-16T11:11:44;22.37;;;19.47;;
20245;SDS011;10281;54.406;18.556;2022-10-16T11:14:19;27.23;;;21.07;;
20245;SDS011;10281;54.406;18.556;2022-10-16T11:16:52;23.70;;;19.47;;
20245;SDS011;10281;54.406;18.556;2022-10-16T11:19:25;21.97;;;18.80;;
20245;SDS011;10281;54.406;18.556;2022-10-16T11:21:59;29.17;;;19.70;;
20245;SDS011;10281;54.406;18.556;2022-10-16T11:24:41;20.90;;;18.10;;
20245;SDS011;10281;54.406;18.556;2022-10-16T11:27:11;22.80;;;17.90;;
20245;SDS011;10281;54.406;18.556;2022-10-16T11:29:44;21.57;;;18.30;;
20245;SDS011;10281;54.406;18.556;2022-10-16T11:32:19;20.77;;;17.90;;
20245;SDS011;10281;54.406;18.556;2022-10-16T11:34:51;20.27;;;17.93;;
20245;SDS011;10281;54.406;18.556;2022-10-16T11:37:21;21.97;;;18.63;;
20245;SDS011;10281;54.406;18.556;2022-10-16T11:39:52;22.73;;;17.20;;
20245;SDS011;10281;54.406;18.556;2022-10-16T11:42:30;21.63;;;17.87;;
20245;SDS011;10281;54.406;18.556;2022-10-16T11:44:57;18.93;;;16.93;;
20245;SDS011;10281;54.406;18.556;2022-10-16T11:47:44;20.67;;;16.70;;
20245;SDS011;10281;54.406;18.556;2022-10-16T11:51:24;19.73;;;16.37;;
20245;SDS011;10281;54.406;18.556;2022-10-16T11:53:11;18.53;;;14.77;;
20245;SDS011;10281;54.406;18.556;2022-10-16T11:55:45;16.00;;;14.30;;
20245;SDS011;10281;54.406;18.556;2022-10-16T11:58:16;19.33;;;14.70;;
20245;SDS011;10281;54.406;18.556;2022-10-16T12:00:46;16.63;;;13.73;;
20245;SDS011;10281;54.406;18.556;2022-10-16T12:03:23;15.50;;;13.60;;
20245;SDS011;10281;54.406;18.556;2022-10-16T12:06:01;16.57;;;14.87;;
20245;SDS011;10281;54.406;18.556;2022-10-16T12:08:34;16.20;;;14.50;;
20245;SDS011;10281;54.406;18.556;2022-10-16T12:11:06;15.43;;;13.60;;
20245;SDS011;10281;54.406;18.556;2022-10-16T12:14:03;15.17;;;13.20;;
20245;SDS011;10281;54.406;18.556;2022-10-16T12:16:27;14.77;;;12.37;;
20245;SDS011;10281;54.406;18.556;2022-10-16T12:21:31;15.00;;;12.50;;
20245;SDS011;10281;54.406;18.556;2022-10-16T12:23:58;13.87;;;11.80;;
20245;SDS011;10281;54.406;18.556;2022-10-16T12:26:26;12.20;;;11.10;;
20245;SDS011;10281;54.406;18.556;2022-10-16T12:28:55;12.03;;;10.83;;
20245;SDS011;10281;54.406;18.556;2022-10-16T12:31:23;12.63;;;10.87;;
20245;SDS011;10281;54.406;18.556;2022-10-16T12:33:54;12.93;;;11.43;;
20245;SDS011;10281;54.406;18.556;2022-10-16T12:36:27;11.20;;;9.70;;
20245;SDS011;10281;54.406;18.556;2022-10-16T12:38:56;10.77;;;9.40;;
20245;SDS011;10281;54.406;18.556;2022-10-16T12:41:31;11.33;;;10.23;;
20245;SDS011;10281;54.406;18.556;2022-10-16T12:44:00;10.47;;;9.30;;
20245;SDS011;10281;54.406;18.556;2022-10-16T12:46:37;10.50;;;9.47;;
20245;SDS011;10281;54.406;18.556;2022-10-16T12:49:17;12.00;;;9.60;;
20245;SDS011;10281;54.406;18.556;2022-10-16T12:51:45;13.63;;;9.67;;
20245;SDS011;10281;54.406;18.556;2022-10-16T12:54:13;13.13;;;8.83;;
20245;SDS011;10281;54.406;18.556;2022-10-16T12:56:46;9.93;;;8.70;;
20245;SDS011;10281;54.406;18.556;2022-10-16T12:59:32;9.70;;;8.27;;
20245;SDS011;10281;54.406;18.556;2022-10-16T13:02:11;11.80;;;8.30;;
20245;SDS011;10281;54.406;18.556;2022-10-16T13:05:15;9.27;;;8.03;;
20245;SDS011;10281;54.406;18.556;2022-10-16T13:10:08;8.67;;;7.70;;
20245;SDS011;10281;54.406;18.556;2022-10-16T13:12:59;7.47;;;6.80;;
20245;SDS011;10281;54.406;18.556;2022-10-16T13:15:27;9.27;;;7.50;;
20245;SDS011;10281;54.406;18.556;2022-10-16T13:18:10;7.23;;;6.23;;
20245;SDS011;10281;54.406;18.556;2022-10-16T13:20:44;8.17;;;6.60;;
20245;SDS011;10281;54.406;18.556;2022-10-16T13:23:14;7.27;;;6.43;;
20245;SDS011;10281;54.406;18.556;2022-10-16T13:25:56;6.97;;;6.13;;
20245;SDS011;10281;54.406;18.556;2022-10-16T13:28:27;7.13;;;5.47;;
20245;SDS011;10281;54.406;18.556;2022-10-16T13:30:56;7.30;;;6.33;;
20245;SDS011;10281;54.406;18.556;2022-10-16T13:35:59;7.40;;;5.87;;
20245;SDS011;10281;54.406;18.556;2022-10-16T13:38:27;8.70;;;5.80;;
20245;SDS011;10281;54.406;18.556;2022-10-16T13:40:58;7.07;;;6.37;;
20245;SDS011;10281;54.406;18.556;2022-10-16T13:43:32;6.93;;;6.23;;
20245;SDS011;10281;54.406;18.556;2022-10-16T13:46:03;9.53;;;5.87;;
20245;SDS011;10281;54.406;18.556;2022-10-16T13:48:33;6.93;;;5.97;;
20245;SDS011;10281;54.406;18.556;2022-10-16T13:51:01;7.20;;;6.50;;
20245;SDS011;10281;54.406;18.556;2022-10-16T13:53:31;8.13;;;5.90;;
20245;SDS011;10281;54.406;18.556;2022-10-16T13:56:01;7.10;;;6.33;;
20245;SDS011;10281;54.406;18.556;2022-10-16T13:58:29;5.87;;;5.37;;
20245;SDS011;10281;54.406;18.556;2022-10-16T14:00:58;7.20;;;6.47;;
20245;SDS011;10281;54.406;18.556;2022-10-16T14:03:27;9.33;;;6.10;;
20245;SDS011;10281;54.406;18.556;2022-10-16T14:05:56;5.90;;;5.30;;
20245;SDS011;10281;54.406;18.556;2022-10-16T14:08:25;7.70;;;6.20;;
20245;SDS011;10281;54.406;18.556;2022-10-16T14:10:55;7.10;;;6.10;;
20245;SDS011;10281;54.406;18.556;2022-10-16T14:13:26;6.83;;;6.03;;
20245;SDS011;10281;54.406;18.556;2022-10-16T14:15:54;9.60;;;6.33;;
20245;SDS011;10281;54.406;18.556;2022-10-16T14:18:23;7.03;;;6.10;;
20245;SDS011;10281;54.406;18.556;2022-10-16T14:20:52;6.67;;;6.07;;
20245;SDS011;10281;54.406;18.556;2022-10-16T14:23:23;7.20;;;6.23;;
20245;SDS011;10281;54.406;18.556;2022-10-16T14:28:43;6.93;;;6.23;;
20245;SDS011;10281;54.406;18.556;2022-10-16T14:33:55;6.73;;;6.10;;
20245;SDS011;10281;54.406;18.556;2022-10-16T14:36:22;7.10;;;6.20;;
20245;SDS011;10281;54.406;18.556;2022-10-16T14:38:56;7.97;;;6.07;;
20245;SDS011;10281;54.406;18.556;2022-10-16T14:41:28;6.57;;;5.90;;
20245;SDS011;10281;54.406;18.556;2022-10-16T14:43:58;7.67;;;6.87;;
20245;SDS011;10281;54.406;18.556;2022-10-16T14:46:31;7.00;;;6.30;;